sensor_id;sensor_type;location;lat;lon;timestamp;P1;durP1;ratioP1;P2;durP2;ratioP2
19780;SDS011;10050;55.492;13.506;2022-11-20T00:00:55;1.77;;;1.57;;
19780;SDS011;10050;55.492;13.506;2022-11-20T00:03:20;1.50;;;1.40;;
19780;SDS011;10050;55.492;13.506;2022-11-20T00:05:46;1.43;;;1.33;;
19780;SDS011;10050;55.492;13.506;2022-11-20T00:08:12;2.03;;;1.83;;
19780;SDS011;10050;55.492;13.506;2022-11-20T00:10:38;1.50;;;1.40;;
19780;SDS011;10050;55.492;13.506;2022-11-20T00:13:05;1.20;;;1.20;;
19780;SDS011;10050;55.492;13.506;2022-11-20T00:15:31;1.13;;;1.00;;
19780;SDS011;10050;55.492;13.506;2022-11-20T00:17:57;1.10;;;1.10;;
19780;SDS011;10050;55.492;13.506;2022-11-20T00:20:23;1.10;;;1.10;;
19780;SDS011;10050;55.492;13.506;2022-11-20T00:22:49;1.50;;;1.40;;
19780;SDS011;10050;55.492;13.506;2022-11-20T00:25:14;1.17;;;1.17;;
19780;SDS011;10050;55.492;13.506;2022-11-20T00:27:40;1.40;;;1.30;;
19780;SDS011;10050;55.492;13.506;2022-11-20T00:30:06;1.20;;;1.20;;
19780;SDS011;10050;55.492;13.506;2022-11-20T00:32:32;1.30;;;1.20;;
19780;SDS011;10050;55.492;13.506;2022-11-20T00:34:58;1.03;;;1.03;;
19780;SDS011;10050;55.492;13.506;2022-11-20T00:37:23;1.20;;;1.20;;
19780;SDS011;10050;55.492;13.506;2022-11-20T00:39:49;0.90;;;0.90;;
19780;SDS011;10050;55.492;13.506;2022-11-20T00:42:14;1.10;;;1.10;;
19780;SDS011;10050;55.492;13.506;2022-11-20T00:44:40;0.93;;;0.93;;
19780;SDS011;10050;55.492;13.506;2022-11-20T00:47:06;1.07;;;1.00;;
19780;SDS011;10050;55.492;13.506;2022-11-20T00:49:31;0.80;;;0.80;;
19780;SDS011;10050;55.492;13.506;2022-11-20T00:51:57;1.00;;;1.00;;
19780;SDS011;10050;55.492;13.506;2022-11-20T00:54:22;0.80;;;0.80;;
19780;SDS011;10050;55.492;13.506;2022-11-20T00:56:48;1.10;;;1.10;;
19780;SDS011;10050;55.492;13.506;2022-11-20T00:59:14;1.00;;;1.00;;
19780;SDS011;10050;55.492;13.506;2022-11-20T01:01:39;1.03;;;1.03;;
19780;SDS011;10050;55.492;13.506;2022-11-20T01:04:05;1.10;;;1.00;;
19780;SDS011;10050;55.492;13.506;2022-11-20T01:06:34;1.60;;;1.50;;
19780;SDS011;10050;55.492;13.506;2022-11-20T01:09:03;1.40;;;1.40;;
19780;SDS011;10050;55.492;13.506;2022-11-20T01:11:35;1.23;;;1.23;;
19780;SDS011;10050;55.492;13.506;2022-11-20T01:14:04;1.10;;;1.10;;
19780;SDS011;10050;55.492;13.506;2022-11-20T01:19:03;1.37;;;1.30;;
19780;SDS011;10050;55.492;13.506;2022-11-20T01:21:39;1.20;;;1.20;;
19780;SDS011;10050;55.492;13.506;2022-11-20T01:24:07;1.00;;;1.00;;
19780;SDS011;10050;55.492;13.506;2022-11-20T01:26:36;1.00;;;1.00;;
19780;SDS011;10050;55.492;13.506;2022-11-20T01:29:04;1.40;;;1.30;;
19780;SDS011;10050;55.492;13.506;2022-11-20T01:31:31;1.13;;;1.13;;
19780;SDS011;10050;55.492;13.506;2022-11-20T01:33:59;1.10;;;1.10;;
19780;SDS011;10050;55.492;13.506;2022-11-20T01:36:31;1.10;;;1.10;;
19780;SDS011;10050;55.492;13.506;2022-11-20T01:38:59;0.90;;;0.90;;
19780;SDS011;10050;55.492;13.506;2022-11-20T01:41:28;1.10;;;1.10;;
19780;SDS011;10050;55.492;13.506;2022-11-20T01:44:17;0.97;;;0.97;;
19780;SDS011;10050;55.492;13.506;2022-11-20T01:49:20;1.07;;;1.07;;
19780;SDS011;10050;55.492;13.506;2022-11-20T01:52:27;1.63;;;1.53;;
19780;SDS011;10050;55.492;13.506;2022-11-20T01:55:07;1.73;;;1.63;;
19780;SDS011;10050;55.492;13.506;2022-11-20T01:57:35;1.67;;;1.57;;
19780;SDS011;10050;55.492;13.506;2022-11-20T02:00:04;1.50;;;1.40;;
19780;SDS011;10050;55.492;13.506;2022-11-20T02:02:32;1.60;;;1.50;;
19780;SDS011;10050;55.492;13.506;2022-11-20T02:05:00;1.67;;;1.57;;
19780;SDS011;10050;55.492;13.506;2022-11-20T02:07:33;1.83;;;1.50;;
19780;SDS011;10050;55.492;13.506;2022-11-20T02:09:59;1.63;;;1.53;;
19780;SDS011;10050;55.492;13.506;2022-11-20T02:12:25;1.70;;;1.60;;
19780;SDS011;10050;55.492;13.506;2022-11-20T02:15:09;1.47;;;1.37;;
19780;SDS011;10050;55.492;13.506;2022-11-20T02:17:35;1.80;;;1.70;;
19780;SDS011;10050;55.492;13.506;2022-11-20T02:20:01;1.77;;;1.67;;
19780;SDS011;10050;55.492;13.506;2022-11-20T02:22:31;1.67;;;1.50;;
19780;SDS011;10050;55.492;13.506;2022-11-20T02:25:02;1.60;;;1.53;;
19780;SDS011;10050;55.492;13.506;2022-11-20T02:27:30;1.47;;;1.37;;
19780;SDS011;10050;55.492;13.506;2022-11-20T02:29:57;1.40;;;1.10;;
19780;SDS011;10050;55.492;13.506;2022-11-20T02:32:27;1.37;;;1.37;;
19780;SDS011;10050;55.492;13.506;2022-11-20T02:34:58;1.33;;;1.33;;
19780;SDS011;10050;55.492;13.506;2022-11-20T02:37:36;1.20;;;1.20;;
19780;SDS011;10050;55.492;13.506;2022-11-20T02:40:04;1.30;;;1.20;;
19780;SDS011;10050;55.492;13.506;2022-11-20T02:42:31;1.50;;;1.40;;
19780;SDS011;10050;55.492;13.506;2022-11-20T02:44:56;1.33;;;1.23;;
19780;SDS011;10050;55.492;13.506;2022-11-20T02:47:22;1.50;;;1.40;;
19780;SDS011;10050;55.492;13.506;2022-11-20T02:49:47;2.80;;;1.50;;
19780;SDS011;10050;55.492;13.506;2022-11-20T02:52:13;1.50;;;1.40;;
19780;SDS011;10050;55.492;13.506;2022-11-20T02:54:38;1.40;;;1.30;;
19780;SDS011;10050;55.492;13.506;2022-11-20T02:57:04;1.17;;;1.17;;
19780;SDS011;10050;55.492;13.506;2022-11-20T02:59:29;1.80;;;1.70;;
19780;SDS011;10050;55.492;13.506;2022-11-20T03:01:55;1.87;;;1.60;;
19780;SDS011;10050;55.492;13.506;2022-11-20T03:04:21;1.50;;;1.50;;
19780;SDS011;10050;55.492;13.506;2022-11-20T03:06:46;1.43;;;1.40;;
19780;SDS011;10050;55.492;13.506;2022-11-20T03:09:12;1.70;;;1.60;;
19780;SDS011;10050;55.492;13.506;2022-11-20T03:11:38;1.30;;;1.30;;
19780;SDS011;10050;55.492;13.506;2022-11-20T03:14:04;1.23;;;1.23;;
19780;SDS011;10050;55.492;13.506;2022-11-20T03:16:30;1.20;;;1.20;;
19780;SDS011;10050;55.492;13.506;2022-11-20T03:18:57;1.27;;;1.17;;
19780;SDS011;10050;55.492;13.506;2022-11-20T03:21:22;1.00;;;1.00;;
19780;SDS011;10050;55.492;13.506;2022-11-20T03:23:48;0.80;;;0.80;;
19780;SDS011;10050;55.492;13.506;2022-11-20T03:26:15;1.10;;;1.10;;
19780;SDS011;10050;55.492;13.506;2022-11-20T03:28:46;1.23;;;1.23;;
19780;SDS011;10050;55.492;13.506;2022-11-20T03:31:14;1.73;;;1.63;;
19780;SDS011;10050;55.492;13.506;2022-11-20T03:33:41;2.00;;;1.90;;
19780;SDS011;10050;55.492;13.506;2022-11-20T03:36:08;1.97;;;1.87;;
19780;SDS011;10050;55.492;13.506;2022-11-20T03:38:36;1.97;;;1.83;;
19780;SDS011;10050;55.492;13.506;2022-11-20T03:41:04;2.00;;;1.90;;
19780;SDS011;10050;55.492;13.506;2022-11-20T03:43:38;1.97;;;1.87;;
19780;SDS011;10050;55.492;13.506;2022-11-20T03:46:05;2.10;;;1.90;;
19780;SDS011;10050;55.492;13.506;2022-11-20T03:48:31;1.90;;;1.80;;
19780;SDS011;10050;55.492;13.506;2022-11-20T03:51:10;1.73;;;1.63;;
19780;SDS011;10050;55.492;13.506;2022-11-20T03:53:40;1.70;;;1.60;;
19780;SDS011;10050;55.492;13.506;2022-11-20T03:56:07;1.80;;;1.70;;
19780;SDS011;10050;55.492;13.506;2022-11-20T03:58:34;2.23;;;2.03;;
19780;SDS011;10050;55.492;13.506;2022-11-20T04:01:08;1.50;;;1.50;;
19780;SDS011;10050;55.492;13.506;2022-11-20T04:03:36;1.93;;;1.83;;
19780;SDS011;10050;55.492;13.506;2022-11-20T04:06:06;1.90;;;1.80;;
19780;SDS011;10050;55.492;13.506;2022-11-20T04:08:34;1.97;;;1.87;;
19780;SDS011;10050;55.492;13.506;2022-11-20T04:11:13;2.10;;;1.90;;
19780;SDS011;10050;55.492;13.506;2022-11-20T04:13:40;1.73;;;1.63;;
19780;SDS011;10050;55.492;13.506;2022-11-20T04:16:07;2.27;;;2.10;;
19780;SDS011;10050;55.492;13.506;2022-11-20T04:18:33;2.13;;;2.00;;
19780;SDS011;10050;55.492;13.506;2022-11-20T04:20:59;2.57;;;2.37;;
19780;SDS011;10050;55.492;13.506;2022-11-20T04:23:25;2.13;;;2.03;;
19780;SDS011;10050;55.492;13.506;2022-11-20T04:25:51;2.40;;;2.27;;
19780;SDS011;10050;55.492;13.506;2022-11-20T04:28:17;2.30;;;2.20;;
19780;SDS011;10050;55.492;13.506;2022-11-20T04:30:43;2.27;;;2.17;;
19780;SDS011;10050;55.492;13.506;2022-11-20T04:33:08;2.43;;;2.23;;
19780;SDS011;10050;55.492;13.506;2022-11-20T04:35:34;2.63;;;2.43;;
19780;SDS011;10050;55.492;13.506;2022-11-20T04:38:00;2.93;;;2.63;;
19780;SDS011;10050;55.492;13.506;2022-11-20T04:40:27;2.90;;;2.43;;
19780;SDS011;10050;55.492;13.506;2022-11-20T04:42:53;2.40;;;2.23;;
19780;SDS011;10050;55.492;13.506;2022-11-20T04:45:19;2.33;;;2.23;;
19780;SDS011;10050;55.492;13.506;2022-11-20T04:47:45;2.73;;;2.53;;
19780;SDS011;10050;55.492;13.506;2022-11-20T04:50:10;2.63;;;2.53;;
19780;SDS011;10050;55.492;13.506;2022-11-20T04:52:36;3.07;;;2.50;;
19780;SDS011;10050;55.492;13.506;2022-11-20T04:55:02;2.50;;;2.30;;
19780;SDS011;10050;55.492;13.506;2022-11-20T04:57:27;2.50;;;2.30;;
19780;SDS011;10050;55.492;13.506;2022-11-20T04:59:53;2.50;;;2.30;;
19780;SDS011;10050;55.492;13.506;2022-11-20T05:02:19;3.03;;;2.70;;
19780;SDS011;10050;55.492;13.506;2022-11-20T05:04:44;2.63;;;2.43;;
19780;SDS011;10050;55.492;13.506;2022-11-20T05:07:10;2.60;;;2.40;;
19780;SDS011;10050;55.492;13.506;2022-11-20T05:09:36;2.70;;;2.50;;
19780;SDS011;10050;55.492;13.506;2022-11-20T05:12:01;2.60;;;2.40;;
19780;SDS011;10050;55.492;13.506;2022-11-20T05:14:27;2.73;;;2.47;;
19780;SDS011;10050;55.492;13.506;2022-11-20T05:16:52;2.20;;;2.10;;
19780;SDS011;10050;55.492;13.506;2022-11-20T05:19:18;3.30;;;2.20;;
19780;SDS011;10050;55.492;13.506;2022-11-20T05:21:43;2.47;;;2.27;;
19780;SDS011;10050;55.492;13.506;2022-11-20T05:24:09;2.27;;;2.17;;
19780;SDS011;10050;55.492;13.506;2022-11-20T05:26:35;2.73;;;2.13;;
19780;SDS011;10050;55.492;13.506;2022-11-20T05:29:00;2.00;;;1.90;;
19780;SDS011;10050;55.492;13.506;2022-11-20T05:31:27;2.10;;;2.00;;
19780;SDS011;10050;55.492;13.506;2022-11-20T05:33:52;2.37;;;2.17;;
19780;SDS011;10050;55.492;13.506;2022-11-20T05:36:19;2.40;;;2.20;;
19780;SDS011;10050;55.492;13.506;2022-11-20T05:38:44;2.77;;;2.30;;
19780;SDS011;10050;55.492;13.506;2022-11-20T05:41:11;2.47;;;2.23;;
19780;SDS011;10050;55.492;13.506;2022-11-20T05:43:42;2.30;;;2.10;;
19780;SDS011;10050;55.492;13.506;2022-11-20T05:46:10;1.93;;;1.83;;
19780;SDS011;10050;55.492;13.506;2022-11-20T05:48:40;2.57;;;2.20;;
19780;SDS011;10050;55.492;13.506;2022-11-20T05:51:07;2.83;;;2.10;;
19780;SDS011;10050;55.492;13.506;2022-11-20T05:53:35;2.27;;;1.93;;
19780;SDS011;10050;55.492;13.506;2022-11-20T05:56:05;1.90;;;1.80;;
19780;SDS011;10050;55.492;13.506;2022-11-20T05:58:33;1.80;;;1.70;;
19780;SDS011;10050;55.492;13.506;2022-11-20T06:04:01;2.00;;;1.90;;
19780;SDS011;10050;55.492;13.506;2022-11-20T06:06:35;2.30;;;1.70;;
19780;SDS011;10050;55.492;13.506;2022-11-20T06:09:01;1.80;;;1.70;;
19780;SDS011;10050;55.492;13.506;2022-11-20T06:11:26;1.80;;;1.70;;
19780;SDS011;10050;55.492;13.506;2022-11-20T06:13:52;1.83;;;1.73;;
19780;SDS011;10050;55.492;13.506;2022-11-20T06:16:18;1.43;;;1.40;;
19780;SDS011;10050;55.492;13.506;2022-11-20T06:18:44;1.67;;;1.57;;
19780;SDS011;10050;55.492;13.506;2022-11-20T06:21:12;1.97;;;1.87;;
19780;SDS011;10050;55.492;13.506;2022-11-20T06:23:49;2.00;;;1.90;;
19780;SDS011;10050;55.492;13.506;2022-11-20T06:26:17;2.50;;;2.00;;
19780;SDS011;10050;55.492;13.506;2022-11-20T06:28:47;2.27;;;2.13;;
19780;SDS011;10050;55.492;13.506;2022-11-20T06:31:14;2.33;;;2.13;;
19780;SDS011;10050;55.492;13.506;2022-11-20T06:33:42;2.27;;;2.17;;
19780;SDS011;10050;55.492;13.506;2022-11-20T06:36:09;2.63;;;2.43;;
19780;SDS011;10050;55.492;13.506;2022-11-20T06:38:36;2.50;;;2.30;;
19780;SDS011;10050;55.492;13.506;2022-11-20T06:41:03;2.87;;;2.50;;
19780;SDS011;10050;55.492;13.506;2022-11-20T06:43:30;2.60;;;2.40;;
19780;SDS011;10050;55.492;13.506;2022-11-20T06:45:57;2.93;;;2.70;;
19780;SDS011;10050;55.492;13.506;2022-11-20T06:48:25;3.40;;;2.60;;
19780;SDS011;10050;55.492;13.506;2022-11-20T06:50:51;3.17;;;2.87;;
19780;SDS011;10050;55.492;13.506;2022-11-20T06:53:17;2.37;;;2.20;;
19780;SDS011;10050;55.492;13.506;2022-11-20T06:55:43;2.53;;;2.33;;
19780;SDS011;10050;55.492;13.506;2022-11-20T06:58:10;3.00;;;2.70;;
19780;SDS011;10050;55.492;13.506;2022-11-20T07:00:36;3.07;;;2.87;;
19780;SDS011;10050;55.492;13.506;2022-11-20T07:03:03;2.60;;;2.40;;
19780;SDS011;10050;55.492;13.506;2022-11-20T07:05:29;2.60;;;2.40;;
19780;SDS011;10050;55.492;13.506;2022-11-20T07:07:57;2.60;;;2.40;;
19780;SDS011;10050;55.492;13.506;2022-11-20T07:10:23;2.67;;;2.47;;
19780;SDS011;10050;55.492;13.506;2022-11-20T07:12:53;3.37;;;2.30;;
19780;SDS011;10050;55.492;13.506;2022-11-20T07:15:20;2.77;;;2.57;;
19780;SDS011;10050;55.492;13.506;2022-11-20T07:17:47;2.20;;;2.10;;
19780;SDS011;10050;55.492;13.506;2022-11-20T07:20:12;2.20;;;2.10;;
19780;SDS011;10050;55.492;13.506;2022-11-20T07:22:38;2.43;;;2.23;;
19780;SDS011;10050;55.492;13.506;2022-11-20T07:25:04;2.40;;;2.20;;
19780;SDS011;10050;55.492;13.506;2022-11-20T07:27:30;2.43;;;2.07;;
19780;SDS011;10050;55.492;13.506;2022-11-20T07:29:56;2.47;;;2.27;;
19780;SDS011;10050;55.492;13.506;2022-11-20T07:32:21;2.63;;;2.43;;
19780;SDS011;10050;55.492;13.506;2022-11-20T07:34:47;2.77;;;2.23;;
19780;SDS011;10050;55.492;13.506;2022-11-20T07:37:13;3.00;;;2.07;;
19780;SDS011;10050;55.492;13.506;2022-11-20T07:39:40;2.30;;;2.10;;
19780;SDS011;10050;55.492;13.506;2022-11-20T07:42:06;2.33;;;2.13;;
19780;SDS011;10050;55.492;13.506;2022-11-20T07:44:32;1.60;;;1.50;;
19780;SDS011;10050;55.492;13.506;2022-11-20T07:46:58;1.90;;;1.70;;
19780;SDS011;10050;55.492;13.506;2022-11-20T07:49:24;1.60;;;1.50;;
19780;SDS011;10050;55.492;13.506;2022-11-20T07:51:50;1.80;;;1.70;;
19780;SDS011;10050;55.492;13.506;2022-11-20T07:54:16;1.80;;;1.70;;
19780;SDS011;10050;55.492;13.506;2022-11-20T07:56:41;1.30;;;1.30;;
19780;SDS011;10050;55.492;13.506;2022-11-20T07:59:07;1.40;;;1.30;;
19780;SDS011;10050;55.492;13.506;2022-11-20T08:01:33;1.13;;;1.03;;
19780;SDS011;10050;55.492;13.506;2022-11-20T08:03:58;1.30;;;1.20;;
19780;SDS011;10050;55.492;13.506;2022-11-20T08:06:24;1.30;;;1.30;;
19780;SDS011;10050;55.492;13.506;2022-11-20T08:08:50;1.30;;;1.30;;
19780;SDS011;10050;55.492;13.506;2022-11-20T08:11:16;1.33;;;1.27;;
19780;SDS011;10050;55.492;13.506;2022-11-20T08:14:00;1.40;;;1.40;;
19780;SDS011;10050;55.492;13.506;2022-11-20T08:16:38;1.60;;;1.60;;
19780;SDS011;10050;55.492;13.506;2022-11-20T08:19:04;1.63;;;1.53;;
19780;SDS011;10050;55.492;13.506;2022-11-20T08:21:30;1.83;;;1.73;;
19780;SDS011;10050;55.492;13.506;2022-11-20T08:23:56;1.27;;;1.27;;
19780;SDS011;10050;55.492;13.506;2022-11-20T08:26:23;1.63;;;1.53;;
19780;SDS011;10050;55.492;13.506;2022-11-20T08:28:52;1.53;;;1.43;;
19780;SDS011;10050;55.492;13.506;2022-11-20T08:31:19;1.40;;;1.40;;
19780;SDS011;10050;55.492;13.506;2022-11-20T08:33:45;2.10;;;1.20;;
19780;SDS011;10050;55.492;13.506;2022-11-20T08:36:11;1.10;;;1.10;;
19780;SDS011;10050;55.492;13.506;2022-11-20T08:38:37;1.80;;;1.17;;
19780;SDS011;10050;55.492;13.506;2022-11-20T08:41:03;1.40;;;1.40;;
19780;SDS011;10050;55.492;13.506;2022-11-20T08:43:48;1.10;;;1.10;;
19780;SDS011;10050;55.492;13.506;2022-11-20T08:46:22;1.30;;;1.20;;
19780;SDS011;10050;55.492;13.506;2022-11-20T08:48:51;1.20;;;1.20;;
19780;SDS011;10050;55.492;13.506;2022-11-20T08:51:17;1.30;;;1.30;;
19780;SDS011;10050;55.492;13.506;2022-11-20T08:53:44;1.80;;;1.47;;
19780;SDS011;10050;55.492;13.506;2022-11-20T08:56:09;1.50;;;1.40;;
19780;SDS011;10050;55.492;13.506;2022-11-20T08:58:36;1.40;;;1.30;;
19780;SDS011;10050;55.492;13.506;2022-11-20T09:01:02;1.60;;;1.20;;
19780;SDS011;10050;55.492;13.506;2022-11-20T09:03:28;1.70;;;1.23;;
19780;SDS011;10050;55.492;13.506;2022-11-20T09:05:57;1.33;;;1.33;;
19780;SDS011;10050;55.492;13.506;2022-11-20T09:08:24;2.47;;;1.40;;
19780;SDS011;10050;55.492;13.506;2022-11-20T09:10:53;1.50;;;1.40;;
19780;SDS011;10050;55.492;13.506;2022-11-20T09:13:20;1.80;;;1.70;;
19780;SDS011;10050;55.492;13.506;2022-11-20T09:15:47;1.43;;;1.40;;
19780;SDS011;10050;55.492;13.506;2022-11-20T09:18:17;1.70;;;1.60;;
19780;SDS011;10050;55.492;13.506;2022-11-20T09:20:43;1.60;;;1.50;;
19780;SDS011;10050;55.492;13.506;2022-11-20T09:23:09;1.40;;;1.30;;
19780;SDS011;10050;55.492;13.506;2022-11-20T09:25:34;1.80;;;1.70;;
19780;SDS011;10050;55.492;13.506;2022-11-20T09:28:00;1.30;;;1.30;;
19780;SDS011;10050;55.492;13.506;2022-11-20T09:30:26;1.23;;;1.23;;
19780;SDS011;10050;55.492;13.506;2022-11-20T09:32:52;1.43;;;1.33;;
19780;SDS011;10050;55.492;13.506;2022-11-20T09:35:17;2.17;;;1.77;;
19780;SDS011;10050;55.492;13.506;2022-11-20T09:37:43;1.40;;;1.40;;
19780;SDS011;10050;55.492;13.506;2022-11-20T09:40:19;2.00;;;1.60;;
19780;SDS011;10050;55.492;13.506;2022-11-20T09:45:39;1.80;;;1.70;;
19780;SDS011;10050;55.492;13.506;2022-11-20T09:51:16;1.70;;;1.60;;
19780;SDS011;10050;55.492;13.506;2022-11-20T09:56:30;2.00;;;1.90;;
19780;SDS011;10050;55.492;13.506;2022-11-20T09:59:02;1.90;;;1.80;;
19780;SDS011;10050;55.492;13.506;2022-11-20T10:01:32;1.97;;;1.87;;
19780;SDS011;10050;55.492;13.506;2022-11-20T10:04:02;1.60;;;1.50;;
19780;SDS011;10050;55.492;13.506;2022-11-20T10:06:37;1.43;;;1.43;;
19780;SDS011;10050;55.492;13.506;2022-11-20T10:11:42;1.83;;;1.73;;
19780;SDS011;10050;55.492;13.506;2022-11-20T10:14:36;1.90;;;1.80;;
19780;SDS011;10050;55.492;13.506;2022-11-20T10:17:23;1.80;;;1.70;;
19780;SDS011;10050;55.492;13.506;2022-11-20T10:26:06;1.90;;;1.80;;
19780;SDS011;10050;55.492;13.506;2022-11-20T10:31:37;2.40;;;2.20;;
19780;SDS011;10050;55.492;13.506;2022-11-20T10:36:52;2.40;;;2.00;;
19780;SDS011;10050;55.492;13.506;2022-11-20T10:39:39;2.33;;;2.13;;
19780;SDS011;10050;55.492;13.506;2022-11-20T10:42:13;2.20;;;2.10;;
19780;SDS011;10050;55.492;13.506;2022-11-20T10:44:54;1.90;;;1.80;;
19780;SDS011;10050;55.492;13.506;2022-11-20T10:47:27;1.80;;;1.70;;
19780;SDS011;10050;55.492;13.506;2022-11-20T10:49:55;2.30;;;1.97;;
19780;SDS011;10050;55.492;13.506;2022-11-20T10:52:34;2.10;;;1.90;;
19780;SDS011;10050;55.492;13.506;2022-11-20T11:01:23;2.27;;;2.07;;
19780;SDS011;10050;55.492;13.506;2022-11-20T11:03:52;2.27;;;2.07;;
19780;SDS011;10050;55.492;13.506;2022-11-20T11:08:59;2.60;;;2.13;;
19780;SDS011;10050;55.492;13.506;2022-11-20T11:11:33;2.20;;;2.10;;
19780;SDS011;10050;55.492;13.506;2022-11-20T11:14:06;3.00;;;2.23;;
19780;SDS011;10050;55.492;13.506;2022-11-20T11:16:32;2.20;;;2.10;;
19780;SDS011;10050;55.492;13.506;2022-11-20T11:19:04;2.33;;;2.13;;
19780;SDS011;10050;55.492;13.506;2022-11-20T11:21:31;1.97;;;1.83;;
19780;SDS011;10050;55.492;13.506;2022-11-20T11:24:01;2.87;;;2.67;;
19780;SDS011;10050;55.492;13.506;2022-11-20T11:26:28;2.50;;;2.30;;
19780;SDS011;10050;55.492;13.506;2022-11-20T11:28:55;2.23;;;2.13;;
19780;SDS011;10050;55.492;13.506;2022-11-20T11:31:26;2.20;;;2.10;;
19780;SDS011;10050;55.492;13.506;2022-11-20T11:34:12;2.50;;;2.30;;
19780;SDS011;10050;55.492;13.506;2022-11-20T11:36:39;2.67;;;2.47;;
19780;SDS011;10050;55.492;13.506;2022-11-20T11:39:06;2.20;;;2.00;;
19780;SDS011;10050;55.492;13.506;2022-11-20T11:41:38;2.27;;;2.07;;
19780;SDS011;10050;55.492;13.506;2022-11-20T11:44:17;2.30;;;2.10;;
19780;SDS011;10050;55.492;13.506;2022-11-20T11:47:04;2.10;;;1.90;;
19780;SDS011;10050;55.492;13.506;2022-11-20T11:49:35;2.57;;;2.37;;
19780;SDS011;10050;55.492;13.506;2022-11-20T11:54:53;3.73;;;2.73;;
19780;SDS011;10050;55.492;13.506;2022-11-20T12:02:34;2.73;;;2.53;;
19780;SDS011;10050;55.492;13.506;2022-11-20T12:05:28;3.10;;;2.90;;
19780;SDS011;10050;55.492;13.506;2022-11-20T12:08:17;3.43;;;2.63;;
19780;SDS011;10050;55.492;13.506;2022-11-20T12:13:45;2.43;;;2.33;;
19780;SDS011;10050;55.492;13.506;2022-11-20T12:16:17;2.43;;;2.23;;
19780;SDS011;10050;55.492;13.506;2022-11-20T12:18:44;2.67;;;2.47;;
19780;SDS011;10050;55.492;13.506;2022-11-20T12:31:54;2.73;;;2.53;;
19780;SDS011;10050;55.492;13.506;2022-11-20T12:34:46;3.17;;;2.87;;
19780;SDS011;10050;55.492;13.506;2022-11-20T12:37:24;2.87;;;2.67;;
19780;SDS011;10050;55.492;13.506;2022-11-20T12:40:07;3.10;;;2.83;;
19780;SDS011;10050;55.492;13.506;2022-11-20T12:42:57;2.97;;;2.77;;
19780;SDS011;10050;55.492;13.506;2022-11-20T12:46:05;2.70;;;2.50;;
19780;SDS011;10050;55.492;13.506;2022-11-20T12:54:21;3.63;;;2.63;;
19780;SDS011;10050;55.492;13.506;2022-11-20T12:56:56;3.07;;;2.70;;
19780;SDS011;10050;55.492;13.506;2022-11-20T12:59:33;3.37;;;3.07;;
19780;SDS011;10050;55.492;13.506;2022-11-20T13:02:25;2.80;;;2.60;;
19780;SDS011;10050;55.492;13.506;2022-11-20T13:07:42;2.50;;;2.37;;
19780;SDS011;10050;55.492;13.506;2022-11-20T13:10:21;2.90;;;2.70;;
19780;SDS011;10050;55.492;13.506;2022-11-20T13:13:01;3.10;;;2.80;;
19780;SDS011;10050;55.492;13.506;2022-11-20T13:15:49;3.10;;;2.80;;
19780;SDS011;10050;55.492;13.506;2022-11-20T13:18:15;2.57;;;2.37;;
19780;SDS011;10050;55.492;13.506;2022-11-20T13:20:43;2.57;;;2.37;;
19780;SDS011;10050;55.492;13.506;2022-11-20T13:23:10;2.77;;;2.57;;
19780;SDS011;10050;55.492;13.506;2022-11-20T13:25:36;2.63;;;2.43;;
19780;SDS011;10050;55.492;13.506;2022-11-20T13:28:04;2.70;;;2.50;;
19780;SDS011;10050;55.492;13.506;2022-11-20T13:30:51;3.20;;;2.90;;
19780;SDS011;10050;55.492;13.506;2022-11-20T13:33:32;3.13;;;2.93;;
19780;SDS011;10050;55.492;13.506;2022-11-20T13:36:06;3.17;;;2.87;;
19780;SDS011;10050;55.492;13.506;2022-11-20T13:38:50;3.57;;;2.70;;
19780;SDS011;10050;55.492;13.506;2022-11-20T13:41:27;2.83;;;2.33;;
19780;SDS011;10050;55.492;13.506;2022-11-20T13:44:10;3.63;;;3.33;;
19780;SDS011;10050;55.492;13.506;2022-11-20T13:46:46;2.97;;;2.77;;
19780;SDS011;10050;55.492;13.506;2022-11-20T13:49:16;3.00;;;2.80;;
19780;SDS011;10050;55.492;13.506;2022-11-20T13:51:50;3.70;;;2.90;;
19780;SDS011;10050;55.492;13.506;2022-11-20T14:05:40;3.30;;;2.90;;
19780;SDS011;10050;55.492;13.506;2022-11-20T14:08:19;4.77;;;3.07;;
19780;SDS011;10050;55.492;13.506;2022-11-20T14:10:50;3.40;;;3.07;;
19780;SDS011;10050;55.492;13.506;2022-11-20T14:13:19;3.30;;;3.00;;
19780;SDS011;10050;55.492;13.506;2022-11-20T14:15:45;3.30;;;3.00;;
19780;SDS011;10050;55.492;13.506;2022-11-20T14:18:15;4.03;;;3.10;;
19780;SDS011;10050;55.492;13.506;2022-11-20T14:20:46;3.47;;;3.13;;
19780;SDS011;10050;55.492;13.506;2022-11-20T14:23:12;3.57;;;3.20;;
19780;SDS011;10050;55.492;13.506;2022-11-20T14:25:48;3.40;;;3.10;;
19780;SDS011;10050;55.492;13.506;2022-11-20T14:28:19;4.30;;;3.10;;
19780;SDS011;10050;55.492;13.506;2022-11-20T14:30:50;3.50;;;2.90;;
19780;SDS011;10050;55.492;13.506;2022-11-20T14:33:17;3.47;;;3.17;;
19780;SDS011;10050;55.492;13.506;2022-11-20T14:35:48;4.97;;;3.30;;
19780;SDS011;10050;55.492;13.506;2022-11-20T14:38:16;3.47;;;3.23;;
19780;SDS011;10050;55.492;13.506;2022-11-20T14:40:45;4.30;;;3.60;;
19780;SDS011;10050;55.492;13.506;2022-11-20T14:45:42;4.37;;;3.97;;
19780;SDS011;10050;55.492;13.506;2022-11-20T14:48:09;5.70;;;4.03;;
19780;SDS011;10050;55.492;13.506;2022-11-20T14:50:37;3.80;;;3.10;;
19780;SDS011;10050;55.492;13.506;2022-11-20T14:53:04;4.50;;;3.50;;
19780;SDS011;10050;55.492;13.506;2022-11-20T14:58:04;4.00;;;3.40;;
19780;SDS011;10050;55.492;13.506;2022-11-20T15:00:56;3.00;;;2.77;;
19780;SDS011;10050;55.492;13.506;2022-11-20T15:03:30;4.57;;;2.80;;
19780;SDS011;10050;55.492;13.506;2022-11-20T15:06:04;3.43;;;3.13;;
19780;SDS011;10050;55.492;13.506;2022-11-20T15:08:31;3.37;;;3.07;;
19780;SDS011;10050;55.492;13.506;2022-11-20T15:10:57;3.70;;;3.23;;
19780;SDS011;10050;55.492;13.506;2022-11-20T15:13:30;3.57;;;3.23;;
19780;SDS011;10050;55.492;13.506;2022-11-20T15:15:58;3.77;;;2.77;;
19780;SDS011;10050;55.492;13.506;2022-11-20T15:18:27;4.23;;;2.70;;
19780;SDS011;10050;55.492;13.506;2022-11-20T15:21:02;4.67;;;3.23;;
19780;SDS011;10050;55.492;13.506;2022-11-20T15:23:29;3.67;;;3.20;;
19780;SDS011;10050;55.492;13.506;2022-11-20T15:25:54;3.30;;;2.67;;
19780;SDS011;10050;55.492;13.506;2022-11-20T15:28:23;5.30;;;4.13;;
19780;SDS011;10050;55.492;13.506;2022-11-20T15:30:58;4.03;;;3.67;;
19780;SDS011;10050;55.492;13.506;2022-11-20T15:33:24;5.50;;;3.80;;
19780;SDS011;10050;55.492;13.506;2022-11-20T15:35:50;4.33;;;3.47;;
19780;SDS011;10050;55.492;13.506;2022-11-20T15:38:15;5.07;;;4.00;;
19780;SDS011;10050;55.492;13.506;2022-11-20T15:40:41;5.57;;;4.33;;
19780;SDS011;10050;55.492;13.506;2022-11-20T15:43:07;8.23;;;5.23;;
19780;SDS011;10050;55.492;13.506;2022-11-20T15:48:12;5.23;;;4.13;;
19780;SDS011;10050;55.492;13.506;2022-11-20T15:50:43;4.23;;;3.83;;
19780;SDS011;10050;55.492;13.506;2022-11-20T15:53:24;5.33;;;4.10;;
19780;SDS011;10050;55.492;13.506;2022-11-20T15:55:50;6.33;;;4.10;;
19780;SDS011;10050;55.492;13.506;2022-11-20T15:58:15;4.67;;;3.70;;
19780;SDS011;10050;55.492;13.506;2022-11-20T16:00:44;3.60;;;3.30;;
19780;SDS011;10050;55.492;13.506;2022-11-20T16:03:10;4.00;;;3.60;;
19780;SDS011;10050;55.492;13.506;2022-11-20T16:05:37;4.60;;;3.77;;
19780;SDS011;10050;55.492;13.506;2022-11-20T16:08:02;9.57;;;5.23;;
19780;SDS011;10050;55.492;13.506;2022-11-20T16:10:28;5.20;;;4.10;;
19780;SDS011;10050;55.492;13.506;2022-11-20T16:12:54;5.37;;;4.43;;
19780;SDS011;10050;55.492;13.506;2022-11-20T16:15:43;6.50;;;5.43;;